sensor_id;sensor_type;location;lat;lon;timestamp;pressure;altitude;pressure_sealevel;temperature;humidity
36190;BME280;22232;50.914;13.858;2023-01-27T00:01:08;98144.88;;;-2.42;100.00
36190;BME280;22232;50.914;13.858;2023-01-27T00:03:36;98147.25;;;-2.48;100.00
36190;BME280;22232;50.914;13.858;2023-01-27T00:06:04;98136.50;;;-2.45;100.00
36190;BME280;22232;50.914;13.858;2023-01-27T00:08:32;98141.56;;;-2.44;100.00
36190;BME280;22232;50.914;13.858;2023-01-27T00:11:00;98140.09;;;-2.56;100.00
36190;BME280;22232;50.914;13.858;2023-01-27T00:13:47;98138.16;;;-2.54;100.00
36190;BME280;22232;50.914;13.858;2023-01-27T00:16:14;98142.28;;;-2.71;100.00
36190;BME280;22232;50.914;13.858;2023-01-27T00:18:42;98147.25;;;-2.68;100.00
36190;BME280;22232;50.914;13.858;2023-01-27T00:21:10;98141.75;;;-2.74;100.00
36190;BME280;22232;50.914;13.858;2023-01-27T00:23:56;98147.69;;;-2.92;100.00
36190;BME280;22232;50.914;13.858;2023-01-27T00:26:42;98139.03;;;-2.83;100.00
36190;BME280;22232;50.914;13.858;2023-01-27T00:29:11;98138.88;;;-2.81;100.00
36190;BME280;22232;50.914;13.858;2023-01-27T00:31:39;98144.25;;;-2.73;100.00
36190;BME280;22232;50.914;13.858;2023-01-27T00:34:25;98143.81;;;-2.68;100.00
36190;BME280;22232;50.914;13.858;2023-01-27T00:36:52;98140.94;;;-2.75;100.00
36190;BME280;22232;50.914;13.858;2023-01-27T00:39:20;98143.81;;;-2.68;100.00
36190;BME280;22232;50.914;13.858;2023-01-27T00:41:47;98137.91;;;-2.61;100.00
36190;BME280;22232;50.914;13.858;2023-01-27T00:44:15;98143.81;;;-2.59;100.00
36190;BME280;22232;50.914;13.858;2023-01-27T00:46:43;98139.41;;;-2.68;100.00
36190;BME280;22232;50.914;13.858;2023-01-27T00:49:11;98139.00;;;-2.63;100.00
36190;BME280;22232;50.914;13.858;2023-01-27T00:51:40;98138.97;;;-2.54;100.00
36190;BME280;22232;50.914;13.858;2023-01-27T00:54:08;98143.38;;;-2.54;100.00
36190;BME280;22232;50.914;13.858;2023-01-27T00:56:36;98147.25;;;-2.48;100.00
36190;BME280;22232;50.914;13.858;2023-01-27T00:59:04;98147.94;;;-2.46;100.00
36190;BME280;22232;50.914;13.858;2023-01-27T01:01:32;98142.84;;;-2.48;100.00
36190;BME280;22232;50.914;13.858;2023-01-27T01:04:01;98141.03;;;-2.47;100.00
36190;BME280;22232;50.914;13.858;2023-01-27T01:06:28;98143.53;;;-2.46;100.00
36190;BME280;22232;50.914;13.858;2023-01-27T01:08:56;98139.41;;;-2.48;100.00
36190;BME280;22232;50.914;13.858;2023-01-27T01:11:25;98141.31;;;-2.50;100.00
36190;BME280;22232;50.914;13.858;2023-01-27T01:13:52;98145.97;;;-2.44;100.00
36190;BME280;22232;50.914;13.858;2023-01-27T01:16:23;98152.47;;;-2.48;100.00
36190;BME280;22232;50.914;13.858;2023-01-27T01:18:52;98145.16;;;-2.45;100.00
36190;BME280;22232;50.914;13.858;2023-01-27T01:21:20;98155.09;;;-2.58;100.00
36190;BME280;22232;50.914;13.858;2023-01-27T01:23:47;98149.72;;;-2.57;100.00
36190;BME280;22232;50.914;13.858;2023-01-27T01:26:16;98156.03;;;-2.59;100.00
36190;BME280;22232;50.914;13.858;2023-01-27T01:28:45;98155.91;;;-2.58;100.00
36190;BME280;22232;50.914;13.858;2023-01-27T01:31:15;98151.38;;;-2.56;100.00
36190;BME280;22232;50.914;13.858;2023-01-27T01:33:43;98147.34;;;-2.50;100.00
36190;BME280;22232;50.914;13.858;2023-01-27T01:36:13;98154.91;;;-2.47;100.00
36190;BME280;22232;50.914;13.858;2023-01-27T01:38:42;98156.16;;;-2.51;100.00
36190;BME280;22232;50.914;13.858;2023-01-27T01:41:17;98161.25;;;-2.49;100.00
36190;BME280;22232;50.914;13.858;2023-01-27T01:43:46;98159.59;;;-2.50;100.00
36190;BME280;22232;50.914;13.858;2023-01-27T01:46:15;98161.94;;;-2.57;100.00
36190;BME280;22232;50.914;13.858;2023-01-27T01:48:54;98162.66;;;-2.55;100.00
36190;BME280;22232;50.914;13.858;2023-01-27T01:51:42;98155.06;;;-2.48;100.00
36190;BME280;22232;50.914;13.858;2023-01-27T01:54:18;98149.41;;;-2.44;100.00
36190;BME280;22232;50.914;13.858;2023-01-27T01:56:54;98150.25;;;-2.43;100.00
36190;BME280;22232;50.914;13.858;2023-01-27T01:59:31;98156.03;;;-2.40;100.00
36190;BME280;22232;50.914;13.858;2023-01-27T02:02:03;98151.50;;;-2.47;100.00
36190;BME280;22232;50.914;13.858;2023-01-27T02:05:23;98150.25;;;-2.43;100.00
36190;BME280;22232;50.914;13.858;2023-01-27T02:10:06;98155.88;;;-2.48;100.00
36190;BME280;22232;50.914;13.858;2023-01-27T02:12:35;98157.69;;;-2.48;100.00
36190;BME280;22232;50.914;13.858;2023-01-27T02:15:06;98149.56;;;-2.45;100.00
36190;BME280;22232;50.914;13.858;2023-01-27T02:17:35;98154.63;;;-2.44;100.00
36190;BME280;22232;50.914;13.858;2023-01-27T02:22:58;98152.03;;;-2.44;100.00
36190;BME280;22232;50.914;13.858;2023-01-27T02:28:05;98156.59;;;-2.56;100.00
36190;BME280;22232;50.914;13.858;2023-01-27T02:30:34;98163.75;;;-2.58;100.00
36190;BME280;22232;50.914;13.858;2023-01-27T02:33:14;98163.31;;;-2.63;100.00
36190;BME280;22232;50.914;13.858;2023-01-27T02:36:15;98164.56;;;-2.57;100.00
36190;BME280;22232;50.914;13.858;2023-01-27T02:38:49;98161.38;;;-2.51;100.00
36190;BME280;22232;50.914;13.858;2023-01-27T02:41:33;98158.94;;;-2.52;100.00
36190;BME280;22232;50.914;13.858;2023-01-27T02:44:02;98161.53;;;-2.52;100.00
36190;BME280;22232;50.914;13.858;2023-01-27T02:46:31;98161.94;;;-2.47;100.00
36190;BME280;22232;50.914;13.858;2023-01-27T02:49:00;98168.25;;;-2.50;100.00
36190;BME280;22232;50.914;13.858;2023-01-27T02:51:28;98166.19;;;-2.56;100.00
36190;BME280;22232;50.914;13.858;2023-01-27T02:53:58;98164.69;;;-2.49;100.00
36190;BME280;22232;50.914;13.858;2023-01-27T02:56:25;98167.97;;;-2.47;100.00
36190;BME280;22232;50.914;13.858;2023-01-27T02:58:55;98167.03;;;-2.46;100.00
36190;BME280;22232;50.914;13.858;2023-01-27T03:01:29;98164.41;;;-2.46;100.00
36190;BME280;22232;50.914;13.858;2023-01-27T03:04:00;98169.50;;;-2.44;100.00
36190;BME280;22232;50.914;13.858;2023-01-27T03:06:28;98169.38;;;-2.43;100.00
36190;BME280;22232;50.914;13.858;2023-01-27T03:08:56;98158.75;;;-2.41;100.00
36190;BME280;22232;50.914;13.858;2023-01-27T03:11:23;98171.28;;;-2.45;100.00
36190;BME280;22232;50.914;13.858;2023-01-27T03:14:10;98168.53;;;-2.43;100.00
36190;BME280;22232;50.914;13.858;2023-01-27T03:16:38;98171.97;;;-2.43;100.00
36190;BME280;22232;50.914;13.858;2023-01-27T03:19:25;98168.53;;;-2.43;100.00
36190;BME280;22232;50.914;13.858;2023-01-27T03:21:55;98165.94;;;-2.43;100.00
36190;BME280;22232;50.914;13.858;2023-01-27T03:24:24;98163.31;;;-2.43;100.00
36190;BME280;22232;50.914;13.858;2023-01-27T03:26:56;98162.47;;;-2.44;100.00
36190;BME280;22232;50.914;13.858;2023-01-27T03:29:36;98170.47;;;-2.45;100.00
36190;BME280;22232;50.914;13.858;2023-01-27T03:32:23;98161.38;;;-2.41;100.00
36190;BME280;22232;50.914;13.858;2023-01-27T03:35:13;98170.88;;;-2.40;100.00
36190;BME280;22232;50.914;13.858;2023-01-27T03:37:44;98172.25;;;-2.36;100.00
36190;BME280;22232;50.914;13.858;2023-01-27T03:40:30;98168.25;;;-2.40;100.00
36190;BME280;22232;50.914;13.858;2023-01-27T03:43:16;98164.97;;;-2.42;100.00
36190;BME280;22232;50.914;13.858;2023-01-27T03:46:03;98171.69;;;-2.40;100.00
36190;BME280;22232;50.914;13.858;2023-01-27T03:48:55;98160.84;;;-2.45;100.00
36190;BME280;22232;50.914;13.858;2023-01-27T03:51:24;98163.72;;;-2.48;100.00
36190;BME280;22232;50.914;13.858;2023-01-27T03:53:52;98175.81;;;-2.47;100.00
36190;BME280;22232;50.914;13.858;2023-01-27T03:56:21;98168.53;;;-2.43;100.00
36190;BME280;22232;50.914;13.858;2023-01-27T03:58:49;98172.53;;;-2.49;100.00
36190;BME280;22232;50.914;13.858;2023-01-27T04:01:18;98168.94;;;-2.48;100.00
36190;BME280;22232;50.914;13.858;2023-01-27T04:03:46;98173.34;;;-2.48;100.00
36190;BME280;22232;50.914;13.858;2023-01-27T04:06:36;98162.75;;;-2.47;100.00
36190;BME280;22232;50.914;13.858;2023-01-27T04:09:27;98161.66;;;-2.54;100.00
36190;BME280;22232;50.914;13.858;2023-01-27T04:11:57;98167.88;;;-2.55;100.00
36190;BME280;22232;50.914;13.858;2023-01-27T04:19:30;98160.69;;;-2.53;100.00
36190;BME280;22232;50.914;13.858;2023-01-27T04:21:59;98163.47;;;-2.55;100.00
36190;BME280;22232;50.914;13.858;2023-01-27T04:24:27;98166.34;;;-2.58;100.00
36190;BME280;22232;50.914;13.858;2023-01-27T04:27:00;98171.41;;;-2.56;100.00
36190;BME280;22232;50.914;13.858;2023-01-27T04:29:30;98168.69;;;-2.55;100.00
36190;BME280;22232;50.914;13.858;2023-01-27T04:31:58;98169.50;;;-2.54;100.00
36190;BME280;22232;50.914;13.858;2023-01-27T04:34:26;98162.75;;;-2.57;100.00
36190;BME280;22232;50.914;13.858;2023-01-27T04:36:55;98174.31;;;-2.49;100.00
36190;BME280;22232;50.914;13.858;2023-01-27T04:39:23;98181.59;;;-2.53;100.00
36190;BME280;22232;50.914;13.858;2023-01-27T04:41:50;98172.00;;;-2.52;100.00
36190;BME280;22232;50.914;13.858;2023-01-27T04:44:19;98166.91;;;-2.54;100.00
36190;BME280;22232;50.914;13.858;2023-01-27T04:46:47;98170.59;;;-2.47;100.00
36190;BME280;22232;50.914;13.858;2023-01-27T04:49:15;98169.09;;;-2.49;100.00
36190;BME280;22232;50.914;13.858;2023-01-27T04:51:43;98168.25;;;-2.50;100.00
36190;BME280;22232;50.914;13.858;2023-01-27T04:54:14;98176.09;;;-2.50;100.00
36190;BME280;22232;50.914;13.858;2023-01-27T04:56:57;98174.44;;;-2.51;100.00
36190;BME280;22232;50.914;13.858;2023-01-27T04:59:25;98171.28;;;-2.55;100.00
36190;BME280;22232;50.914;13.858;2023-01-27T05:01:53;98167.59;;;-2.52;100.00
36190;BME280;22232;50.914;13.858;2023-01-27T05:04:21;98174.44;;;-2.51;100.00
36190;BME280;22232;50.914;13.858;2023-01-27T05:06:49;98176.66;;;-2.46;100.00
36190;BME280;22232;50.914;13.858;2023-01-27T05:09:16;98177.06;;;-2.51;100.00
36190;BME280;22232;50.914;13.858;2023-01-27T05:11:44;98175.16;;;-2.49;100.00
36190;BME280;22232;50.914;13.858;2023-01-27T05:14:11;98176.66;;;-2.46;100.00
36190;BME280;22232;50.914;13.858;2023-01-27T05:16:40;98176.38;;;-2.43;100.00
36190;BME280;22232;50.914;13.858;2023-01-27T05:19:08;98182.81;;;-2.47;100.00
36190;BME280;22232;50.914;13.858;2023-01-27T05:21:36;98187.09;;;-2.46;100.00
36190;BME280;22232;50.914;13.858;2023-01-27T05:24:03;98195.63;;;-2.54;100.00
36190;BME280;22232;50.914;13.858;2023-01-27T05:26:31;98197.41;;;-2.45;100.00
36190;BME280;22232;50.914;13.858;2023-01-27T05:28:58;98190.25;;;-2.43;100.00
36190;BME280;22232;50.914;13.858;2023-01-27T05:31:28;98198.50;;;-2.47;100.00
36190;BME280;22232;50.914;13.858;2023-01-27T05:33:59;98203.44;;;-2.44;100.00
36190;BME280;22232;50.914;13.858;2023-01-27T05:36:28;98201.81;;;-2.45;100.00
36190;BME280;22232;50.914;13.858;2023-01-27T05:38:57;98203.88;;;-2.39;100.00
36190;BME280;22232;50.914;13.858;2023-01-27T05:41:27;98212.41;;;-2.37;100.00
36190;BME280;22232;50.914;13.858;2023-01-27T05:43:57;98215.13;;;-2.39;100.00
36190;BME280;22232;50.914;13.858;2023-01-27T05:46:26;98211.97;;;-2.33;100.00
36190;BME280;22232;50.914;13.858;2023-01-27T05:48:58;98208.00;;;-2.37;100.00
36190;BME280;22232;50.914;13.858;2023-01-27T05:51:39;98206.59;;;-2.41;100.00
36190;BME280;22232;50.914;13.858;2023-01-27T05:54:08;98206.75;;;-2.42;100.00
36190;BME280;22232;50.914;13.858;2023-01-27T05:56:35;98218.72;;;-2.40;100.00
36190;BME280;22232;50.914;13.858;2023-01-27T05:59:03;98212.78;;;-2.42;100.00
36190;BME280;22232;50.914;13.858;2023-01-27T06:01:32;98212.09;;;-2.44;100.00
36190;BME280;22232;50.914;13.858;2023-01-27T06:04:01;98217.91;;;-2.40;100.00
36190;BME280;22232;50.914;13.858;2023-01-27T06:06:30;98217.06;;;-2.31;100.00
36190;BME280;22232;50.914;13.858;2023-01-27T06:08:58;98219.78;;;-2.33;100.00
36190;BME280;22232;50.914;13.858;2023-01-27T06:11:26;98221.59;;;-2.33;100.00
36190;BME280;22232;50.914;13.858;2023-01-27T06:13:54;98215.81;;;-2.37;100.00
36190;BME280;22232;50.914;13.858;2023-01-27T06:16:21;98217.31;;;-2.44;100.00
36190;BME280;22232;50.914;13.858;2023-01-27T06:18:49;98224.22;;;-2.43;100.00
36190;BME280;22232;50.914;13.858;2023-01-27T06:21:17;98228.31;;;-2.50;100.00
36190;BME280;22232;50.914;13.858;2023-01-27T06:23:47;98228.59;;;-2.53;100.00
36190;BME280;22232;50.914;13.858;2023-01-27T06:26:17;98235.88;;;-2.47;100.00
36190;BME280;22232;50.914;13.858;2023-01-27T06:28:45;98237.28;;;-2.52;100.00
36190;BME280;22232;50.914;13.858;2023-01-27T06:31:18;98248.66;;;-2.54;100.00
36190;BME280;22232;50.914;13.858;2023-01-27T06:33:46;98241.53;;;-2.51;100.00
36190;BME280;22232;50.914;13.858;2023-01-27T06:36:16;98242.22;;;-2.49;100.00
36190;BME280;22232;50.914;13.858;2023-01-27T06:38:44;98238.66;;;-2.48;100.00
36190;BME280;22232;50.914;13.858;2023-01-27T06:41:12;98244.69;;;-2.48;100.00
36190;BME280;22232;50.914;13.858;2023-01-27T06:43:40;98237.81;;;-2.39;100.00
36190;BME280;22232;50.914;13.858;2023-01-27T06:46:07;98236.03;;;-2.48;100.00
36190;BME280;22232;50.914;13.858;2023-01-27T06:48:35;98231.50;;;-2.46;100.00
36190;BME280;22232;50.914;13.858;2023-01-27T06:51:04;98247.19;;;-2.46;100.00
36190;BME280;22232;50.914;13.858;2023-01-27T06:53:32;98246.22;;;-2.45;100.00
36190;BME280;22232;50.914;13.858;2023-01-27T06:56:01;98247.72;;;-2.43;100.00
36190;BME280;22232;50.914;13.858;2023-01-27T06:58:28;98249.91;;;-2.48;100.00
36190;BME280;22232;50.914;13.858;2023-01-27T07:00:56;98253.50;;;-2.49;100.00
36190;BME280;22232;50.914;13.858;2023-01-27T07:03:25;98255.84;;;-2.56;100.00
36190;BME280;22232;50.914;13.858;2023-01-27T07:05:52;98259.94;;;-2.53;100.00
36190;BME280;22232;50.914;13.858;2023-01-27T07:08:20;98269.28;;;-2.50;100.00
36190;BME280;22232;50.914;13.858;2023-01-27T07:10:47;98262.56;;;-2.43;100.00
36190;BME280;22232;50.914;13.858;2023-01-27T07:13:15;98266.56;;;-2.39;100.00
36190;BME280;22232;50.914;13.858;2023-01-27T07:15:42;98267.38;;;-2.39;100.00
36190;BME280;22232;50.914;13.858;2023-01-27T07:18:11;98272.59;;;-2.39;100.00
36190;BME280;22232;50.914;13.858;2023-01-27T07:20:40;98277.00;;;-2.49;100.00
36190;BME280;22232;50.914;13.858;2023-01-27T07:23:09;98279.47;;;-2.47;100.00
36190;BME280;22232;50.914;13.858;2023-01-27T07:25:37;98283.03;;;-2.39;100.00
36190;BME280;22232;50.914;13.858;2023-01-27T07:28:05;98277.28;;;-2.42;100.00
36190;BME280;22232;50.914;13.858;2023-01-27T07:30:33;98279.56;;;-2.78;100.00
36190;BME280;22232;50.914;13.858;2023-01-27T07:33:05;98281.53;;;-2.61;100.00
36190;BME280;22232;50.914;13.858;2023-01-27T07:35:35;98274.06;;;-2.75;100.00
36190;BME280;22232;50.914;13.858;2023-01-27T07:38:03;98280.53;;;-2.79;100.00
36190;BME280;22232;50.914;13.858;2023-01-27T07:40:32;98291.78;;;-2.79;100.00
36190;BME280;22232;50.914;13.858;2023-01-27T07:43:00;98293.31;;;-2.76;100.00
36190;BME280;22232;50.914;13.858;2023-01-27T07:45:28;98285.88;;;-2.81;100.00
36190;BME280;22232;50.914;13.858;2023-01-27T07:48:05;98298.81;;;-2.79;100.00
36190;BME280;22232;50.914;13.858;2023-01-27T07:50:34;98296.75;;;-2.75;100.00
36190;BME280;22232;50.914;13.858;2023-01-27T07:53:03;98299.91;;;-2.82;100.00
36190;BME280;22232;50.914;13.858;2023-01-27T07:55:31;98303.06;;;-2.78;100.00
36190;BME280;22232;50.914;13.858;2023-01-27T07:58:00;98304.59;;;-2.75;100.00
36190;BME280;22232;50.914;13.858;2023-01-27T08:00:28;98300.34;;;-2.77;100.00
36190;BME280;22232;50.914;13.858;2023-01-27T08:02:57;98313.91;;;-2.83;100.00
36190;BME280;22232;50.914;13.858;2023-01-27T08:05:25;98313.47;;;-2.88;100.00
36190;BME280;22232;50.914;13.858;2023-01-27T08:07:54;98302.91;;;-2.86;100.00
36190;BME280;22232;50.914;13.858;2023-01-27T08:10:25;98308.56;;;-2.81;100.00
36190;BME280;22232;50.914;13.858;2023-01-27T08:12:52;98314.84;;;-2.84;100.00
36190;BME280;22232;50.914;13.858;2023-01-27T08:15:20;98312.25;;;-2.84;100.00
36190;BME280;22232;50.914;13.858;2023-01-27T08:17:55;98315.03;;;-2.66;100.00
36190;BME280;22232;50.914;13.858;2023-01-27T08:20:24;98306.97;;;-2.43;100.00
36190;BME280;22232;50.914;13.858;2023-01-27T08:22:52;98298.16;;;-2.42;100.00
36190;BME280;22232;50.914;13.858;2023-01-27T08:25:21;98308.63;;;-2.52;100.00
36190;BME280;22232;50.914;13.858;2023-01-27T08:27:53;98301.88;;;-2.55;100.00
36190;BME280;22232;50.914;13.858;2023-01-27T08:30:21;98297.63;;;-2.56;100.00
36190;BME280;22232;50.914;13.858;2023-01-27T08:32:49;98300.34;;;-2.47;100.00
36190;BME280;22232;50.914;13.858;2023-01-27T08:35:17;98299.00;;;-2.42;100.00
36190;BME280;22232;50.914;13.858;2023-01-27T08:37:46;98301.06;;;-2.36;100.00
36190;BME280;22232;50.914;13.858;2023-01-27T08:40:15;98292.69;;;-2.39;100.00
36190;BME280;22232;50.914;13.858;2023-01-27T08:42:43;98298.88;;;-2.31;100.00
36190;BME280;22232;50.914;13.858;2023-01-27T08:45:10;98307.25;;;-2.37;100.00
36190;BME280;22232;50.914;13.858;2023-01-27T08:47:38;98315.75;;;-2.54;100.00
36190;BME280;22232;50.914;13.858;2023-01-27T08:50:06;98317.13;;;-2.50;100.00
36190;BME280;22232;50.914;13.858;2023-01-27T08:52:34;98312.22;;;-2.34;100.00
36190;BME280;22232;50.914;13.858;2023-01-27T08:55:02;98318.94;;;-2.21;100.00
36190;BME280;22232;50.914;13.858;2023-01-27T08:57:29;98313.19;;;-2.15;100.00
36190;BME280;22232;50.914;13.858;2023-01-27T08:59:59;98313.72;;;-2.12;100.00
36190;BME280;22232;50.914;13.858;2023-01-27T09:02:26;98319.63;;;-2.10;100.00
36190;BME280;22232;50.914;13.858;2023-01-27T09:04:54;98323.47;;;-2.23;100.00
36190;BME280;22232;50.914;13.858;2023-01-27T09:07:21;98326.50;;;-2.28;100.00
36190;BME280;22232;50.914;13.858;2023-01-27T09:09:49;98326.78;;;-2.21;100.00
36190;BME280;22232;50.914;13.858;2023-01-27T09:12:27;98335.44;;;-2.21;100.00
36190;BME280;22232;50.914;13.858;2023-01-27T09:14:57;98336.13;;;-2.28;100.00
36190;BME280;22232;50.914;13.858;2023-01-27T09:17:25;98332.28;;;-2.34;100.00
36190;BME280;22232;50.914;13.858;2023-01-27T09:19:53;98342.84;;;-2.36;100.00
36190;BME280;22232;50.914;13.858;2023-01-27T09:22:21;98347.09;;;-2.54;100.00
36190;BME280;22232;50.914;13.858;2023-01-27T09:24:48;98345.19;;;-2.52;100.00
36190;BME280;22232;50.914;13.858;2023-01-27T09:27:16;98351.06;;;-2.50;100.00
36190;BME280;22232;50.914;13.858;2023-01-27T09:29:50;98355.75;;;-2.54;100.00
36190;BME280;22232;50.914;13.858;2023-01-27T09:32:18;98350.69;;;-2.45;100.00
36190;BME280;22232;50.914;13.858;2023-01-27T09:34:46;98358.34;;;-2.54;100.00
36190;BME280;22232;50.914;13.858;2023-01-27T09:37:13;98370.41;;;-2.72;100.00
36190;BME280;22232;50.914;13.858;2023-01-27T09:39:55;98359.25;;;-2.74;100.00
36190;BME280;22232;50.914;13.858;2023-01-27T09:42:35;98361.78;;;-2.63;100.00
36190;BME280;22232;50.914;13.858;2023-01-27T09:50:56;98364.81;;;-2.58;100.00
36190;BME280;22232;50.914;13.858;2023-01-27T10:01:56;98370.50;;;-2.33;100.00
36190;BME280;22232;50.914;13.858;2023-01-27T10:04:44;98373.00;;;-2.22;100.00
36190;BME280;22232;50.914;13.858;2023-01-27T10:10:18;98377.91;;;-2.28;100.00
36190;BME280;22232;50.914;13.858;2023-01-27T10:18:19;98357.72;;;-2.17;100.00
36190;BME280;22232;50.914;13.858;2023-01-27T10:21:11;98360.06;;;-2.23;100.00
36190;BME280;22232;50.914;13.858;2023-01-27T10:26:46;98352.22;;;-2.14;100.00
36190;BME280;22232;50.914;13.858;2023-01-27T10:29:25;98357.88;;;-2.28;100.00
36190;BME280;22232;50.914;13.858;2023-01-27T10:32:08;98352.75;;;-2.20;100.00
36190;BME280;22232;50.914;13.858;2023-01-27T10:34:46;98345.50;;;-2.06;100.00
36190;BME280;22232;50.914;13.858;2023-01-27T10:42:52;98326.75;;;-1.92;100.00
36190;BME280;22232;50.914;13.858;2023-01-27T10:45:26;98341.63;;;-1.93;100.00
36190;BME280;22232;50.914;13.858;2023-01-27T10:51:08;98339.16;;;-1.94;100.00
36190;BME280;22232;50.914;13.858;2023-01-27T10:57:56;98335.84;;;-1.67;100.00
36190;BME280;22232;50.914;13.858;2023-01-27T11:00:33;98335.50;;;-1.45;100.00
36190;BME280;22232;50.914;13.858;2023-01-27T11:03:37;98340.31;;;-1.30;100.00
36190;BME280;22232;50.914;13.858;2023-01-27T11:06:13;98337.94;;;-1.24;100.00
36190;BME280;22232;50.914;13.858;2023-01-27T11:08:45;98328.41;;;-1.15;100.00
36190;BME280;22232;50.914;13.858;2023-01-27T11:11:16;98335.56;;;-1.17;100.00
36190;BME280;22232;50.914;13.858;2023-01-27T11:14:13;98339.03;;;-1.26;100.00
36190;BME280;22232;50.914;13.858;2023-01-27T11:16:57;98337.06;;;-1.14;100.00
36190;BME280;22232;50.914;13.858;2023-01-27T11:19:34;98334.16;;;-1.11;100.00
36190;BME280;22232;50.914;13.858;2023-01-27T11:22:43;98333.78;;;-1.17;100.00
36190;BME280;22232;50.914;13.858;2023-01-27T11:36:11;98343.25;;;-1.63;100.00
36190;BME280;22232;50.914;13.858;2023-01-27T11:38:39;98338.81;;;-1.52;100.00
36190;BME280;22232;50.914;13.858;2023-01-27T11:41:07;98347.34;;;-1.50;100.00
36190;BME280;22232;50.914;13.858;2023-01-27T11:43:34;98344.03;;;-1.52;100.00
36190;BME280;22232;50.914;13.858;2023-01-27T11:46:06;98337.88;;;-1.51;100.00
36190;BME280;22232;50.914;13.858;2023-01-27T11:48:41;98342.91;;;-1.40;100.00
36190;BME280;22232;50.914;13.858;2023-01-27T11:51:17;98342.94;;;-1.50;100.00
36190;BME280;22232;50.914;13.858;2023-01-27T11:54:20;98330.97;;;-1.43;100.00
36190;BME280;22232;50.914;13.858;2023-01-27T11:56:50;98322.03;;;-1.50;100.00
36190;BME280;22232;50.914;13.858;2023-01-27T11:59:27;98324.53;;;-1.58;100.00
36190;BME280;22232;50.914;13.858;2023-01-27T12:02:02;98328.22;;;-1.51;100.00
36190;BME280;22232;50.914;13.858;2023-01-27T12:07:12;98322.75;;;-1.57;100.00
36190;BME280;22232;50.914;13.858;2023-01-27T12:09:42;98321.47;;;-1.53;100.00
36190;BME280;22232;50.914;13.858;2023-01-27T12:12:12;98320.63;;;-1.44;100.00
36190;BME280;22232;50.914;13.858;2023-01-27T12:14:53;98316.25;;;-1.53;100.00
36190;BME280;22232;50.914;13.858;2023-01-27T12:17:31;98314.59;;;-1.45;100.00
36190;BME280;22232;50.914;13.858;2023-01-27T12:20:05;98324.75;;;-1.42;100.00
36190;BME280;22232;50.914;13.858;2023-01-27T12:22:36;98314.31;;;-1.51;100.00
36190;BME280;22232;50.914;13.858;2023-01-27T12:25:24;98308.13;;;-1.50;100.00
36190;BME280;22232;50.914;13.858;2023-01-27T12:27:57;98309.06;;;-1.42;100.00
36190;BME280;22232;50.914;13.858;2023-01-27T12:30:28;98302.84;;;-1.41;100.00
36190;BME280;22232;50.914;13.858;2023-01-27T12:32:57;98300.25;;;-1.41;100.00
36190;BME280;22232;50.914;13.858;2023-01-27T12:35:33;98304.88;;;-1.25;100.00
36190;BME280;22232;50.914;13.858;2023-01-27T12:38:16;98301.28;;;-1.24;100.00
36190;BME280;22232;50.914;13.858;2023-01-27T12:40:47;98304.63;;;-1.31;100.00
36190;BME280;22232;50.914;13.858;2023-01-27T12:43:17;98301.91;;;-1.40;100.00
36190;BME280;22232;50.914;13.858;2023-01-27T12:48:32;98303.97;;;-1.43;100.00
36190;BME280;22232;50.914;13.858;2023-01-27T12:51:14;98302.56;;;-1.38;100.00
36190;BME280;22232;50.914;13.858;2023-01-27T12:53:42;98305.19;;;-1.28;100.00
36190;BME280;22232;50.914;13.858;2023-01-27T12:56:21;98303.09;;;-1.24;100.00
36190;BME280;22232;50.914;13.858;2023-01-27T12:58:59;98304.31;;;-1.19;100.00
36190;BME280;22232;50.914;13.858;2023-01-27T13:01:29;98295.41;;;-1.35;100.00
36190;BME280;22232;50.914;13.858;2023-01-27T13:04:23;98301.34;;;-1.43;100.00
36190;BME280;22232;50.914;13.858;2023-01-27T13:12:22;98292.84;;;-1.45;100.00
36190;BME280;22232;50.914;13.858;2023-01-27T13:14:53;98301.34;;;-1.43;100.00
36190;BME280;22232;50.914;13.858;2023-01-27T13:17:28;98295.94;;;-1.32;100.00
36190;BME280;22232;50.914;13.858;2023-01-27T13:28:41;98313.03;;;-1.38;100.00
36190;BME280;22232;50.914;13.858;2023-01-27T13:34:45;98312.28;;;-1.57;100.00
36190;BME280;22232;50.914;13.858;2023-01-27T13:37:19;98315.31;;;-1.72;100.00
36190;BME280;22232;50.914;13.858;2023-01-27T13:39:58;98313.56;;;-1.81;100.00
36190;BME280;22232;50.914;13.858;2023-01-27T13:42:45;98311.63;;;-1.69;100.00
36190;BME280;22232;50.914;13.858;2023-01-27T13:45:19;98309.69;;;-1.67;100.00
36190;BME280;22232;50.914;13.858;2023-01-27T13:51:18;98304.66;;;-1.41;100.00
36190;BME280;22232;50.914;13.858;2023-01-27T13:53:50;98300.13;;;-1.39;100.00
36190;BME280;22232;50.914;13.858;2023-01-27T14:02:28;98301.63;;;-1.36;100.00
36190;BME280;22232;50.914;13.858;2023-01-27T14:10:44;98309.41;;;-1.64;100.00
36190;BME280;22232;50.914;13.858;2023-01-27T14:13:31;98313.25;;;-1.68;100.00
36190;BME280;22232;50.914;13.858;2023-01-27T14:16:28;98321.75;;;-1.56;100.00
36190;BME280;22232;50.914;13.858;2023-01-27T14:22:34;98323.97;;;-1.62;100.00
36190;BME280;22232;50.914;13.858;2023-01-27T14:27:57;98336.06;;;-1.51;100.00
36190;BME280;22232;50.914;13.858;2023-01-27T14:30:41;98339.78;;;-1.53;100.00
36190;BME280;22232;50.914;13.858;2023-01-27T14:33:14;98343.34;;;-1.45;100.00
36190;BME280;22232;50.914;13.858;2023-01-27T14:35:51;98339.94;;;-1.45;100.00
36190;BME280;22232;50.914;13.858;2023-01-27T14:38:30;98337.97;;;-1.43;100.00
36190;BME280;22232;50.914;13.858;2023-01-27T14:41:12;98346.50;;;-1.41;100.00
36190;BME280;22232;50.914;13.858;2023-01-27T14:47:08;98353.25;;;-1.39;100.00
36190;BME280;22232;50.914;13.858;2023-01-27T14:52:43;98355.91;;;-1.48;100.00
36190;BME280;22232;50.914;13.858;2023-01-27T15:01:46;98376.28;;;-1.42;100.00
36190;BME280;22232;50.914;13.858;2023-01-27T15:23:47;98378.44;;;-1.28;100.00
36190;BME280;22232;50.914;13.858;2023-01-27T15:26:24;98368.06;;;-1.20;100.00